Vancouver, Canada
Current Conditions -  °F | °C
As of 12:35 PM on Saturday 25 Oct 2014 (Local Time) from CYVR Reporting Station
Rain Showers Rain Showers  
Wind Chill: 13°   Ceiling: 7100
Heat Index: 13°   Visibility: 15mi
Dew Point: 10°   Wind: 10mph
Humidity: 82%   Direction: 80°E
Pressure: 29.42"   Gusts: 17mph
Location:  49.26°N, 123.11°W
Report Text: CYVR 251935Z 08009G15KT 15SM -SHRA FEW011 SCT030 BKN071 OVC088 13/10 A2942 RMK SF1SC3AC2AC2 CVCTV CLD EMBD SLP962 DENSITY ALT 300FT
Loading
Personal Weather Stations






























Interactive Weather Map
Tropical Storm Tracking
New forecast layout! Learn more

10-Day Weather Forecast

Advertisements
Track Severe Weather on mobile